createdAt,value
2018-09-02T00:00:27.957Z,16.90
2018-09-02T00:02:58.476Z,16.80
2018-09-02T00:05:29.112Z,16.90
2018-09-02T00:08:00.104Z,16.80
2018-09-02T00:10:31.398Z,16.80
2018-09-02T00:13:01.884Z,16.80
2018-09-02T00:15:32.492Z,16.80
2018-09-02T00:18:02.972Z,16.80
2018-09-02T00:20:33.461Z,16.80
2018-09-02T00:23:03.960Z,16.80
2018-09-02T00:25:34.478Z,16.80
2018-09-02T00:28:04.964Z,16.80
2018-09-02T00:30:35.483Z,16.80
2018-09-02T00:33:06.179Z,16.80
2018-09-02T00:35:36.636Z,16.80
2018-09-02T00:38:06.998Z,16.80
2018-09-02T00:40:37.481Z,16.80
2018-09-02T00:43:07.960Z,16.80
2018-09-02T00:45:38.698Z,16.70
2018-09-02T00:48:09.088Z,16.80
2018-09-02T00:50:39.492Z,16.80
2018-09-02T00:53:10.083Z,16.70
2018-09-02T00:55:40.773Z,16.70
2018-09-02T00:58:10.970Z,16.80
2018-09-02T01:00:41.405Z,16.80
2018-09-02T01:03:11.855Z,16.70
2018-09-02T01:05:42.287Z,16.70
2018-09-02T01:08:12.914Z,16.80
2018-09-02T01:10:43.341Z,16.80
2018-09-02T01:13:13.768Z,16.70
2018-09-02T01:15:44.305Z,16.70
2018-09-02T01:18:14.712Z,16.70
2018-09-02T01:20:45.095Z,16.80
2018-09-02T01:23:15.728Z,16.70
2018-09-02T01:25:46.307Z,16.80
2018-09-02T01:28:16.695Z,16.80
2018-09-02T01:30:47.234Z,16.80
2018-09-02T01:33:17.592Z,16.80
2018-09-02T01:35:48.023Z,16.80
2018-09-02T01:38:18.391Z,16.80
2018-09-02T01:40:49.049Z,16.80
2018-09-02T01:43:19.606Z,16.80
2018-09-02T01:45:49.995Z,16.80
2018-09-02T01:48:20.467Z,16.80
2018-09-02T01:50:50.964Z,16.80
2018-09-02T01:53:21.567Z,16.80
2018-09-02T01:55:51.912Z,16.80
2018-09-02T01:58:22.372Z,16.80
2018-09-02T02:00:52.852Z,16.80
2018-09-02T02:03:29.508Z,16.80
2018-09-02T02:06:00.283Z,16.80
2018-09-02T02:08:30.941Z,16.80
2018-09-02T02:11:01.573Z,16.90
2018-09-02T02:13:31.823Z,16.90
2018-09-02T02:16:02.288Z,16.90
2018-09-02T02:18:32.896Z,16.80
2018-09-02T02:21:03.617Z,16.80
2018-09-02T02:23:39.390Z,16.80
2018-09-02T02:26:09.945Z,16.80
2018-09-02T02:28:40.295Z,16.80
2018-09-02T02:31:10.722Z,16.80
2018-09-02T02:33:41.280Z,16.80
2018-09-02T02:36:11.811Z,16.80
2018-09-02T02:38:42.219Z,16.80
2018-09-02T02:41:12.740Z,16.80
2018-09-02T02:43:43.267Z,16.70
2018-09-02T02:46:13.592Z,16.70
2018-09-02T02:48:44.050Z,16.70
2018-09-02T02:51:14.439Z,16.70
2018-09-02T02:53:44.873Z,16.70
2018-09-02T02:56:15.135Z,16.70
2018-09-02T02:58:45.650Z,16.80
2018-09-02T03:01:15.952Z,16.70
2018-09-02T03:03:46.280Z,16.70
2018-09-02T03:06:16.901Z,16.70
2018-09-02T03:08:47.279Z,16.60
2018-09-02T03:11:17.940Z,16.60
2018-09-02T03:13:48.593Z,16.60
2018-09-02T03:16:25.776Z,16.50
2018-09-02T03:18:56.413Z,16.60
2018-09-02T03:21:27.508Z,16.50
2018-09-02T03:23:58.082Z,16.50
2018-09-02T03:26:29.208Z,16.50
2018-09-02T03:28:59.919Z,16.50
2018-09-02T03:31:30.395Z,16.50
2018-09-02T03:34:01.125Z,16.50
2018-09-02T03:36:31.737Z,16.50
2018-09-02T03:39:02.471Z,16.50
2018-09-02T03:41:33.395Z,16.50
2018-09-02T03:44:04.120Z,16.40
2018-09-02T03:46:34.371Z,16.40
2018-09-02T03:49:04.740Z,16.40
2018-09-02T03:51:35.300Z,16.40
2018-09-02T03:54:06.280Z,16.40
2018-09-02T03:56:36.805Z,16.40
2018-09-02T03:59:07.520Z,16.40
2018-09-02T04:01:37.850Z,16.40
2018-09-02T04:04:08.333Z,16.40
2018-09-02T04:06:38.924Z,16.40
2018-09-02T04:09:11.841Z,16.40
2018-09-02T04:11:42.325Z,16.50
2018-09-02T04:14:12.908Z,16.50
2018-09-02T04:16:43.292Z,16.50
2018-09-02T04:19:13.658Z,16.60
2018-09-02T04:21:44.042Z,16.60
2018-09-02T04:24:14.705Z,16.70
2018-09-02T04:26:45.076Z,16.70
2018-09-02T04:29:15.364Z,16.70
2018-09-02T04:31:45.757Z,16.70
2018-09-02T04:34:16.878Z,16.70
2018-09-02T04:36:47.345Z,16.70
2018-09-02T04:39:18.064Z,16.70
2018-09-02T04:41:48.396Z,16.80
2018-09-02T04:44:18.823Z,16.80
2018-09-02T04:46:49.405Z,16.80
2018-09-02T04:49:19.831Z,16.80
2018-09-02T04:51:50.260Z,16.90
2018-09-02T04:54:20.930Z,17.00
2018-09-02T04:56:51.362Z,17.00
2018-09-02T04:59:21.712Z,17.00
2018-09-02T05:01:52.409Z,17.00
2018-09-02T05:04:22.880Z,17.00
2018-09-02T05:06:53.218Z,17.10
2018-09-02T05:09:23.706Z,17.10
2018-09-02T05:11:54.126Z,17.20
2018-09-02T05:14:24.661Z,17.20
2018-09-02T05:16:56.156Z,17.20
2018-09-02T05:19:27.182Z,17.20
2018-09-02T05:21:57.626Z,17.20
2018-09-02T05:24:28.080Z,17.20
2018-09-02T05:26:58.405Z,17.20
2018-09-02T05:29:28.771Z,17.20
2018-09-02T05:31:58.935Z,17.20
2018-09-02T05:34:29.449Z,17.30
2018-09-02T05:36:59.908Z,17.30
2018-09-02T05:39:30.293Z,17.30
2018-09-02T05:42:00.970Z,17.30
2018-09-02T05:44:31.390Z,17.30
2018-09-02T05:47:01.753Z,17.20
2018-09-02T05:49:32.165Z,17.20
2018-09-02T05:52:05.190Z,17.20
2018-09-02T05:54:35.772Z,17.30
2018-09-02T05:57:06.128Z,17.30
2018-09-02T05:59:36.473Z,17.30
2018-09-02T06:02:07.033Z,17.30
2018-09-02T06:04:37.614Z,17.30
2018-09-02T06:07:08.010Z,17.30
2018-09-02T06:09:38.570Z,17.40
2018-09-02T06:12:09.571Z,17.40
2018-09-02T06:14:40.123Z,17.40
2018-09-02T06:17:10.995Z,17.50
2018-09-02T06:19:41.567Z,17.50
2018-09-02T06:22:12.106Z,17.50
2018-09-02T06:24:42.651Z,17.50
2018-09-02T06:27:13.135Z,17.50
2018-09-02T06:29:43.562Z,17.50
2018-09-02T06:32:14.060Z,17.50
2018-09-02T06:34:44.566Z,17.50
2018-09-02T06:37:14.813Z,17.50
2018-09-02T06:39:45.203Z,17.50
2018-09-02T06:42:15.752Z,17.50
2018-09-02T06:44:46.249Z,17.40
2018-09-02T06:47:16.648Z,17.40
2018-09-02T06:49:47.041Z,17.40
2018-09-02T06:52:17.267Z,17.40
2018-09-02T06:54:47.949Z,17.40
2018-09-02T06:57:18.321Z,17.40
2018-09-02T06:59:48.965Z,17.40
2018-09-02T07:02:19.916Z,17.40
2018-09-02T07:04:50.946Z,17.40
2018-09-02T07:07:21.553Z,17.40
2018-09-02T07:09:52.079Z,17.40
2018-09-02T07:12:22.596Z,17.40
2018-09-02T07:14:57.642Z,17.40
2018-09-02T07:17:29.783Z,17.50
2018-09-02T07:20:00.797Z,17.50
2018-09-02T07:22:31.236Z,17.50
2018-09-02T07:25:01.609Z,17.60
2018-09-02T07:27:32.002Z,17.60
2018-09-02T07:30:02.404Z,17.60
2018-09-02T07:32:32.962Z,17.60
2018-09-02T07:35:03.655Z,17.70
2018-09-02T07:37:33.960Z,17.70
2018-09-02T07:40:04.371Z,17.90
2018-09-02T07:42:35.202Z,18.00
2018-09-02T07:45:06.082Z,18.20
2018-09-02T07:47:36.811Z,18.30
2018-09-02T07:50:07.317Z,18.40
2018-09-02T07:52:37.619Z,18.50
2018-09-02T07:55:08.581Z,18.60
2018-09-02T07:57:39.176Z,18.60
2018-09-02T08:00:11.505Z,18.60
2018-09-02T08:02:42.063Z,18.60
2018-09-02T08:05:12.386Z,18.70
2018-09-02T08:07:42.830Z,18.80
2018-09-02T08:10:13.390Z,18.90
2018-09-02T08:12:43.868Z,19.00
2018-09-02T08:15:14.169Z,19.00
2018-09-02T08:17:44.681Z,19.10
2018-09-02T08:20:15.144Z,19.10
2018-09-02T08:22:45.589Z,19.20
2018-09-02T08:25:16.051Z,19.20
2018-09-02T08:27:47.458Z,19.30
2018-09-02T08:30:18.045Z,19.30
2018-09-02T08:32:48.682Z,19.40
2018-09-02T08:35:19.310Z,19.40
2018-09-02T08:37:49.811Z,19.50
2018-09-02T08:40:20.087Z,19.50
2018-09-02T08:42:50.425Z,19.50
2018-09-02T08:45:20.710Z,19.40
2018-09-02T08:47:51.445Z,19.40
2018-09-02T08:50:21.999Z,19.20
2018-09-02T08:52:52.670Z,19.30
2018-09-02T08:55:23.107Z,19.40
2018-09-02T08:57:53.509Z,19.70
2018-09-02T09:00:24.092Z,19.90
2018-09-02T09:02:54.569Z,20.10
2018-09-02T09:05:25.095Z,20.30
2018-09-02T09:07:55.646Z,20.50
2018-09-02T09:10:26.188Z,20.60
2018-09-02T09:12:56.801Z,20.50
2018-09-02T09:15:27.311Z,20.50
2018-09-02T09:17:57.960Z,20.40
2018-09-02T09:20:28.289Z,20.30
2018-09-02T09:22:58.530Z,20.10
2018-09-02T09:25:28.937Z,20.00
2018-09-02T09:27:59.347Z,19.80
2018-09-02T09:30:29.805Z,19.80
2018-09-02T09:33:00.432Z,19.70
2018-09-02T09:35:30.877Z,19.70
2018-09-02T09:38:01.176Z,19.70
2018-09-02T09:40:31.567Z,19.60
2018-09-02T09:43:02.193Z,19.50
2018-09-02T09:45:32.940Z,19.50
2018-09-02T09:48:03.420Z,19.60
2018-09-02T09:50:33.694Z,19.70
2018-09-02T09:53:04.038Z,19.90
2018-09-02T09:55:34.483Z,20.10
2018-09-02T09:58:05.303Z,20.30
2018-09-02T10:00:40.714Z,20.40
2018-09-02T10:03:11.296Z,20.30
2018-09-02T10:05:41.827Z,20.20
2018-09-02T10:08:12.224Z,20.10
2018-09-02T10:10:43.113Z,20.10
2018-09-02T10:13:13.508Z,20.00
2018-09-02T10:15:44.053Z,19.90
2018-09-02T10:18:15.170Z,20.00
2018-09-02T10:20:45.550Z,20.10
2018-09-02T10:23:15.822Z,20.20
2018-09-02T10:25:46.047Z,20.10
2018-09-02T10:28:16.446Z,20.20
2018-09-02T10:30:46.925Z,20.20
2018-09-02T10:33:17.067Z,20.30
2018-09-02T10:35:47.598Z,20.50
2018-09-02T10:38:18.718Z,20.70
2018-09-02T10:40:49.130Z,20.90
2018-09-02T10:43:19.777Z,21.10
2018-09-02T10:45:50.464Z,21.30
2018-09-02T10:48:21.002Z,21.30
2018-09-02T10:50:51.302Z,21.20
2018-09-02T10:53:21.894Z,21.00
2018-09-02T10:55:52.490Z,20.90
2018-09-02T10:58:22.952Z,20.80
2018-09-02T11:00:54.196Z,20.60
2018-09-02T11:03:24.483Z,20.50
2018-09-02T11:05:54.882Z,20.50
2018-09-02T11:08:25.166Z,20.50
2018-09-02T11:10:55.910Z,20.50
2018-09-02T11:13:26.565Z,20.60
2018-09-02T11:15:57.270Z,20.60
2018-09-02T11:18:27.976Z,20.70
2018-09-02T11:21:00.406Z,21.10
2018-09-02T11:23:31.250Z,21.60
2018-09-02T11:26:01.934Z,21.90
2018-09-02T11:28:32.558Z,22.00
2018-09-02T11:31:03.127Z,22.00
2018-09-02T11:33:33.715Z,22.10
2018-09-02T11:36:04.426Z,22.20
2018-09-02T11:38:34.813Z,22.20
2018-09-02T11:41:05.436Z,22.30
2018-09-02T11:43:36.219Z,22.30
2018-09-02T11:46:06.945Z,22.50
2018-09-02T11:48:37.400Z,22.90
2018-09-02T11:51:08.205Z,23.20
2018-09-02T11:53:38.651Z,23.50
2018-09-02T11:56:09.261Z,23.80
2018-09-02T11:58:39.867Z,23.90
2018-09-02T12:01:11.089Z,24.20
2018-09-02T12:03:41.472Z,24.60
2018-09-02T12:06:12.073Z,25.00
2018-09-02T12:08:42.487Z,25.40
2018-09-02T12:11:12.776Z,25.70
2018-09-02T12:13:43.267Z,25.80
2018-09-02T12:16:13.970Z,25.90
2018-09-02T12:18:44.491Z,26.30
2018-09-02T12:21:14.946Z,27.10
2018-09-02T12:23:45.463Z,28.20
2018-09-02T12:26:15.886Z,29.00
2018-09-02T12:28:45.964Z,28.90
2018-09-02T12:31:16.028Z,28.10
2018-09-02T12:33:46.170Z,27.30
2018-09-02T12:36:16.191Z,26.80
2018-09-02T12:38:46.170Z,26.60
2018-09-02T12:41:16.202Z,26.30
2018-09-02T12:43:46.226Z,25.70
2018-09-02T12:46:17.583Z,25.40
2018-09-02T12:48:47.665Z,26.10
2018-09-02T12:51:17.793Z,28.90
2018-09-02T12:53:48.508Z,29.60
2018-09-02T12:56:18.557Z,28.90
2018-09-02T12:58:53.564Z,28.10
2018-09-02T13:01:23.671Z,27.20
2018-09-02T13:03:55.781Z,26.30
2018-09-02T13:06:25.971Z,25.70
2018-09-02T13:08:55.986Z,25.40
2018-09-02T13:11:26.036Z,25.30
2018-09-02T13:13:56.038Z,25.40
2018-09-02T13:16:26.512Z,25.60
2018-09-02T13:18:56.659Z,25.90
2018-09-02T13:21:26.919Z,26.00
2018-09-02T13:23:56.970Z,26.30
2018-09-02T13:26:27.108Z,26.10
2018-09-02T13:28:57.080Z,25.80
2018-09-02T13:31:27.217Z,25.50
2018-09-02T13:33:57.248Z,25.60
2018-09-02T13:36:27.715Z,27.10
2018-09-02T13:38:57.799Z,28.60
2018-09-02T13:41:27.806Z,29.60
2018-09-02T13:43:57.823Z,32.60
2018-09-02T13:46:27.909Z,34.40
2018-09-02T13:48:57.959Z,34.70
2018-09-02T13:51:28.180Z,33.70
2018-09-02T13:53:58.133Z,32.60
2018-09-02T13:56:28.288Z,32.10
2018-09-02T13:58:58.314Z,31.70
2018-09-02T14:01:28.450Z,31.70
2018-09-02T14:03:58.514Z,32.30
2018-09-02T14:06:28.604Z,33.30
2018-09-02T14:08:59.484Z,33.00
2018-09-02T14:11:29.532Z,32.50
2018-09-02T14:13:59.587Z,31.50
2018-09-02T14:16:29.826Z,30.00
2018-09-02T14:18:59.882Z,29.00
2018-09-02T14:21:30.003Z,28.10
2018-09-02T14:24:00.557Z,27.40
2018-09-02T14:26:30.683Z,26.70
2018-09-02T14:29:07.345Z,26.30
2018-09-02T14:31:37.440Z,26.10
2018-09-02T14:34:08.937Z,25.90
2018-09-02T14:36:38.933Z,25.50
2018-09-02T14:39:12.430Z,25.30
2018-09-02T14:41:42.792Z,25.00
2018-09-02T14:44:12.800Z,24.80
2018-09-02T14:46:42.908Z,24.60
2018-09-02T14:49:12.914Z,24.40
2018-09-02T14:51:43.009Z,24.20
2018-09-02T14:54:13.032Z,24.00
2018-09-02T14:56:43.050Z,23.60
2018-09-02T14:59:13.400Z,23.40
2018-09-02T15:01:43.730Z,23.20
2018-09-02T15:04:14.517Z,23.10
2018-09-02T15:06:45.022Z,23.10
2018-09-02T15:09:15.585Z,23.10
2018-09-02T15:11:46.273Z,23.20
2018-09-02T15:14:16.780Z,23.40
2018-09-02T15:16:47.203Z,23.60
2018-09-02T15:19:29.970Z,24.10
2018-09-02T15:22:00.622Z,24.40
2018-09-02T15:24:52.571Z,24.50
2018-09-02T15:27:23.335Z,24.50
2018-09-02T15:29:54.505Z,24.30
2018-09-02T15:32:24.920Z,24.00
2018-09-02T15:34:55.444Z,23.70
2018-09-02T15:37:25.635Z,23.50
2018-09-02T15:39:56.160Z,23.10
2018-09-02T15:42:26.721Z,22.80
2018-09-02T15:44:57.161Z,22.50
2018-09-02T15:47:27.517Z,22.30
2018-09-02T15:49:58.140Z,22.10
2018-09-02T15:52:29.103Z,21.80
2018-09-02T15:54:59.678Z,21.70
2018-09-02T15:57:30.255Z,21.50
2018-09-02T16:00:00.571Z,21.50
2018-09-02T16:02:30.842Z,21.50
2018-09-02T16:05:01.436Z,21.60
2018-09-02T16:07:32.528Z,21.60
2018-09-02T16:10:03.786Z,21.50
2018-09-02T16:12:34.076Z,21.30
2018-09-02T16:15:04.548Z,21.20
2018-09-02T16:17:34.821Z,21.20
2018-09-02T16:20:05.523Z,21.20
2018-09-02T16:22:42.680Z,21.30
2018-09-02T16:25:13.254Z,21.40
2018-09-02T16:27:43.610Z,21.40
2018-09-02T16:30:14.359Z,21.40
2018-09-02T16:32:45.543Z,21.30
2018-09-02T16:35:16.088Z,21.30
2018-09-02T16:37:46.303Z,21.20
2018-09-02T16:40:16.711Z,21.00
2018-09-02T16:42:47.226Z,20.90
2018-09-02T16:45:17.821Z,20.80
2018-09-02T16:47:48.295Z,20.70
2018-09-02T16:50:18.827Z,20.70
2018-09-02T16:52:49.247Z,20.60
2018-09-02T16:55:19.756Z,20.70
2018-09-02T16:57:50.121Z,20.70
2018-09-02T17:00:22.796Z,20.60
2018-09-02T17:02:53.163Z,20.60
2018-09-02T17:05:24.069Z,20.60
2018-09-02T17:07:57.983Z,20.50
2018-09-02T17:10:29.764Z,20.50
2018-09-02T17:13:00.299Z,20.40
2018-09-02T17:15:41.846Z,20.30
2018-09-02T17:18:12.139Z,20.30
2018-09-02T17:20:45.242Z,20.20
2018-09-02T17:23:15.914Z,20.10
2018-09-02T17:25:46.538Z,20.00
2018-09-02T17:28:16.770Z,19.90
2018-09-02T17:30:46.979Z,19.90
2018-09-02T17:33:17.365Z,19.80
2018-09-02T17:35:47.647Z,19.80
2018-09-02T17:38:18.040Z,19.80
2018-09-02T17:40:48.279Z,19.70
2018-09-02T17:43:18.550Z,19.70
2018-09-02T17:45:48.987Z,19.60
2018-09-02T17:48:20.052Z,19.50
2018-09-02T17:50:51.507Z,19.50
2018-09-02T17:53:22.333Z,19.40
2018-09-02T17:55:52.963Z,19.40
2018-09-02T17:58:23.296Z,19.40
2018-09-02T18:00:55.285Z,19.40
2018-09-02T18:03:25.597Z,19.40
2018-09-02T18:05:56.132Z,19.40
2018-09-02T18:08:26.450Z,19.40
2018-09-02T18:10:57.638Z,19.40
2018-09-02T18:13:28.062Z,19.40
2018-09-02T18:15:58.621Z,19.40
2018-09-02T18:18:29.161Z,19.30
2018-09-02T18:20:59.982Z,19.30
2018-09-02T18:23:30.678Z,19.30
2018-09-02T18:26:03.281Z,19.30
2018-09-02T18:28:40.038Z,19.30
2018-09-02T18:31:10.921Z,19.30
2018-09-02T18:33:41.343Z,19.20
2018-09-02T18:36:12.161Z,19.20
2018-09-02T18:38:43.351Z,19.20
2018-09-02T18:41:14.369Z,19.20
2018-09-02T18:43:45.016Z,19.20
2018-09-02T18:46:16.541Z,19.10
2018-09-02T18:48:46.785Z,19.10
2018-09-02T18:51:17.535Z,19.00
2018-09-02T18:53:48.426Z,19.00
2018-09-02T18:56:19.039Z,19.00
2018-09-02T18:58:49.891Z,18.90
2018-09-02T19:01:25.791Z,18.90
2018-09-02T19:03:56.391Z,18.90
2018-09-02T19:06:38.537Z,18.80
2018-09-02T19:09:10.184Z,18.80
2018-09-02T19:11:40.545Z,18.70
2018-09-02T19:14:11.029Z,18.70
2018-09-02T19:16:41.427Z,18.70
2018-09-02T19:19:13.702Z,18.70
2018-09-02T19:21:44.114Z,18.70
2018-09-02T19:24:14.725Z,18.70
2018-09-02T19:26:44.951Z,18.80
2018-09-02T19:29:15.545Z,18.70
2018-09-02T19:31:45.987Z,18.70
2018-09-02T19:34:16.448Z,18.70
2018-09-02T19:36:46.897Z,18.70
2018-09-02T19:39:17.371Z,18.80
2018-09-02T19:41:47.737Z,18.70
2018-09-02T19:44:18.360Z,18.70
2018-09-02T19:46:48.879Z,18.70
2018-09-02T19:49:19.516Z,18.70
2018-09-02T19:51:50.137Z,18.70
2018-09-02T19:54:20.880Z,18.70
2018-09-02T19:56:51.618Z,18.70
2018-09-02T19:59:22.180Z,18.60
2018-09-02T20:01:52.542Z,18.60
2018-09-02T20:04:22.946Z,18.60
2018-09-02T20:06:53.537Z,18.60
2018-09-02T20:09:24.001Z,18.60
2018-09-02T20:11:54.450Z,18.60
2018-09-02T20:14:24.829Z,18.50
2018-09-02T20:16:55.388Z,18.50
2018-09-02T20:19:25.915Z,18.50
2018-09-02T20:21:56.377Z,18.50
2018-09-02T20:24:26.943Z,18.50
2018-09-02T20:26:57.493Z,18.50
2018-09-02T20:29:28.025Z,18.50
2018-09-02T20:31:59.516Z,18.50
2018-09-02T20:34:29.860Z,18.50
2018-09-02T20:37:00.369Z,18.50
2018-09-02T20:39:30.985Z,18.50
2018-09-02T20:42:01.391Z,18.50
2018-09-02T20:44:31.918Z,18.50
2018-09-02T20:47:02.461Z,18.50
2018-09-02T20:49:32.968Z,18.50
2018-09-02T20:52:03.521Z,18.50
2018-09-02T20:54:34.044Z,18.40
2018-09-02T20:57:04.709Z,18.40
2018-09-02T20:59:35.389Z,18.40
2018-09-02T21:02:06.084Z,18.30
2018-09-02T21:04:36.570Z,18.30
2018-09-02T21:07:07.000Z,18.20
2018-09-02T21:09:37.510Z,18.20
2018-09-02T21:12:14.344Z,18.20
2018-09-02T21:14:44.981Z,18.10
2018-09-02T21:17:15.215Z,18.10
2018-09-02T21:19:45.579Z,18.10
2018-09-02T21:22:15.856Z,18.10
2018-09-02T21:24:46.362Z,18.00
2018-09-02T21:27:16.928Z,18.00
2018-09-02T21:29:48.143Z,18.00
2018-09-02T21:32:18.531Z,17.90
2018-09-02T21:34:49.063Z,17.90
2018-09-02T21:37:19.602Z,17.90
2018-09-02T21:39:50.175Z,17.80
2018-09-02T21:42:20.752Z,17.80
2018-09-02T21:44:51.060Z,17.80
2018-09-02T21:47:21.491Z,17.80
2018-09-02T21:49:52.104Z,17.80
2018-09-02T21:52:22.595Z,17.70
2018-09-02T21:54:53.215Z,17.70
2018-09-02T21:57:23.499Z,17.70
2018-09-02T21:59:53.898Z,17.70
2018-09-02T22:02:24.434Z,17.70
2018-09-02T22:04:54.873Z,17.70
2018-09-02T22:07:25.421Z,17.60
2018-09-02T22:09:55.981Z,17.70
2018-09-02T22:12:26.267Z,17.70
2018-09-02T22:14:56.471Z,17.70
2018-09-02T22:17:27.012Z,17.60
2018-09-02T22:19:57.527Z,17.60
2018-09-02T22:22:28.099Z,17.60
2018-09-02T22:24:58.658Z,17.60
2018-09-02T22:27:28.926Z,17.60
2018-09-02T22:29:59.399Z,17.60
2018-09-02T22:32:29.812Z,17.50
2018-09-02T22:35:00.344Z,17.50
2018-09-02T22:37:30.601Z,17.50
2018-09-02T22:40:00.967Z,17.50
2018-09-02T22:42:31.531Z,17.50
2018-09-02T22:45:02.175Z,17.50
2018-09-02T22:47:32.693Z,17.50
2018-09-02T22:50:03.052Z,17.50
2018-09-02T22:52:36.313Z,17.50
2018-09-02T22:55:06.630Z,17.50
2018-09-02T22:57:37.226Z,17.60
2018-09-02T23:00:08.124Z,17.60
2018-09-02T23:02:38.731Z,17.60
2018-09-02T23:05:09.302Z,17.60
2018-09-02T23:07:39.859Z,17.70
2018-09-02T23:10:10.420Z,17.70
2018-09-02T23:12:40.945Z,17.70
2018-09-02T23:15:11.477Z,17.70
2018-09-02T23:17:42.812Z,17.70
2018-09-02T23:20:13.434Z,17.70
2018-09-02T23:22:43.728Z,17.70
2018-09-02T23:25:14.430Z,17.80
2018-09-02T23:27:44.987Z,17.70
2018-09-02T23:30:15.416Z,17.70
2018-09-02T23:32:45.798Z,17.70
2018-09-02T23:35:16.392Z,17.70
2018-09-02T23:37:46.846Z,17.70
2018-09-02T23:40:17.164Z,17.70
2018-09-02T23:42:47.695Z,17.80
2018-09-02T23:45:18.033Z,17.80
2018-09-02T23:47:48.359Z,17.70
2018-09-02T23:50:18.697Z,17.80
2018-09-02T23:52:49.323Z,17.80
2018-09-02T23:55:19.886Z,17.80
2018-09-02T23:57:50.212Z,17.70
